Monkton Ridge, Vermont
Current Conditions -  °F | °C
As of 12:16 AM on Friday 31 Oct 2014 (Local Time) from KBTV Reporting Station
Overcast Overcast  
Wind Chill: 44°   Ceiling: 2700
Heat Index: 44°   Visibility: 10mi
Dew Point: 33°   Wind: 3mph
Humidity: 65%   Direction: 10°N
Pressure: 30.02"   Gusts: NA
Location:  44.2438°N, 73.1915°W
Report Text: KBTV 310416Z 01003KT 10SM BKN027 OVC036 07/01 A3002 RMK AO2 T00670006
Loading
Personal Weather Stations






























Interactive Weather Map
Tropical Storm Tracking
New forecast layout! Learn more

10-Day Weather Forecast

Advertisements
Track Severe Weather on mobile